SKCG/CTG METAR and TAF weather

Enter ICAO airport designator
Station Type Date Time Source
SKCG METAR 2020/07/14 17:00 UTC NOAA

SKCG 141700Z 09003KT 9999 FEW016 SCT100 BKN200 30/23 A2988


Station Type Date Time Source
SKCG Decoded METAR 2020/07/14 17:00 UTC NOAA

Cartagena / Rafael Nunez, Colombia (SKCG) 10-27N 075-31W 12M
Jul 14, 2020 - 01:00 PM EDT / 2020.07.14 1700 UTC
Wind: from the E (090 degrees) at 3 MPH (3 KT):0
Visibility: greater than 7 mile(s):0
Sky conditions: mostly cloudy
Temperature: 86 F (30 C)
Heat index: 93.4 F (34.1 C):1
Dew Point: 73 F (23 C)
Relative Humidity: 66%
Pressure (altimeter): 29.88 in. Hg (1011 hPa)
ob: SKCG 141700Z 09003KT 9999 FEW016 SCT100 BKN200 30/23 A2988
cycle: 17

Station Type Date Time Source
SKCG TAF 2020/07/14 18:54 UTC NOAA

TAF SKCG 141630Z 1418/1518 34012KT 9999 FEW018 SCT100 PROB40
TEMPO 1419/1423 TS FEW015CB
BECMG 1502/1504 VRB02KT TX32/1419Z TN27/1511Z

Example: see airport list